Time;durP1;ratioP1;P1;durP2;ratioP2;P2;SDS_P1;SDS_P2;PMS_P1;PMS_P2;Temp;Humidity;BMP_temperature;BMP_pressure;BME280_temperature;BME280_humidity;BME280_pressure;Samples;Min_cycle;Max_cycle;Signal;HPM_P1;HPM_P2
2021/09/28 00:01:00;;;;;;;8.30;6.50;;;;;;;16.70;67.41;97495.16;117381;1177;71438;-74
2021/09/28 00:03:31;;;;;;;8.70;6.20;;;;;;;16.71;67.21;97498.80;117353;1177;70401;-74
2021/09/28 00:06:00;;;;;;;7.20;6.00;;;;;;;16.71;67.33;97501.11;117409;1176;69149;-75
2021/09/28 00:08:30;;;;;;;9.90;8.90;;;;;;;16.70;67.54;97496.59;117318;1176;59561;-74
2021/09/28 00:11:01;;;;;;;7.60;6.40;;;;;;;16.64;69.24;97495.23;117343;1177;59532;-73
2021/09/28 00:13:31;;;;;;;;;;;;;;;16.60;68.68;97496.33;117259;1177;71346;-74
2021/09/28 00:16:03;;;;;;;7.70;6.40;;;;;;;16.56;69.14;97497.61;117350;1176;69211;-74
2021/09/28 00:18:33;;;;;;;11.00;8.20;;;;;;;16.54;69.01;97500.39;117290;1177;69328;-74
2021/09/28 00:21:04;;;;;;;9.10;7.30;;;;;;;16.51;69.24;97495.83;117300;1177;59523;-74
2021/09/28 00:23:34;;;;;;;8.80;7.50;;;;;;;16.48;69.39;97494.84;117263;1177;59583;-74
2021/09/28 00:26:04;;;;;;;8.00;7.20;;;;;;;16.46;68.75;97493.48;117420;1177;71460;-73
2021/09/28 00:28:34;;;;;;;8.10;6.80;;;;;;;16.45;69.42;97491.94;117498;1177;68406;-74
2021/09/28 00:31:05;;;;;;;10.50;7.40;;;;;;;16.46;68.35;97490.14;117436;1177;68495;-73
2021/09/28 00:33:35;;;;;;;8.60;6.40;;;;;;;16.46;68.41;97486.77;117268;1177;59523;-73
2021/09/28 00:36:05;;;;;;;7.00;5.10;;;;;;;16.49;67.82;97488.90;117311;1176;59484;-74
2021/09/28 00:38:35;;;;;;;10.20;7.60;;;;;;;16.52;67.86;97488.46;117327;1177;70575;-73
2021/09/28 00:41:06;;;;;;;9.60;6.70;;;;;;;16.53;68.05;97487.73;117369;1176;68464;-74
2021/09/28 00:43:51;;;;;;;8.30;6.20;;;;;;;16.55;68.41;97487.70;117436;1176;69213;-74
2021/09/28 00:46:22;;;;;;;8.60;5.90;;;;;;;16.55;68.08;97486.95;117452;1177;59497;-74
2021/09/28 00:48:53;;;;;;;5.90;5.00;;;;;;;16.57;67.89;97487.35;117343;1177;59464;-74
2021/09/28 00:51:23;;;;;;;8.50;5.50;;;;;;;16.57;67.89;97487.19;117429;1176;71205;-76
2021/09/28 00:53:55;;;;;;;9.00;6.30;;;;;;;16.57;67.87;97485.21;117386;1177;69029;-74
2021/09/28 00:56:25;;;;;;;10.00;7.80;;;;;;;16.56;68.59;97485.86;117367;1177;69621;-75
2021/09/28 00:59:00;;;;;;;6.80;5.30;;;;;;;16.54;68.30;97486.23;117141;1177;59549;-73
2021/09/28 01:01:30;;;;;;;8.40;7.20;;;;;;;16.55;68.55;97485.79;117485;1176;59529;-74
2021/09/28 01:04:01;;;;;;;8.50;6.50;;;;;;;16.50;69.51;97487.21;117323;1177;71253;-73
2021/09/28 01:06:31;;;;;;;7.50;6.50;;;;;;;16.48;68.94;97486.95;117362;1176;69343;-74
2021/09/28 01:09:02;;;;;;;7.70;5.40;;;;;;;16.45;69.43;97488.83;117254;1170;69242;-74
2021/09/28 01:11:33;;;;;;;8.30;6.50;;;;;;;16.41;69.76;97487.08;117317;1176;59484;-74
2021/09/28 01:14:03;;;;;;;8.90;6.80;;;;;;;16.35;70.91;97487.29;117365;1176;59552;-74
2021/09/28 01:16:34;;;;;;;11.90;9.70;;;;;;;16.28;71.89;97486.15;117234;1177;70265;-73
2021/09/28 01:19:05;;;;;;;11.30;9.40;;;;;;;16.16;73.45;97486.59;117268;1176;69165;-73
2021/09/28 01:21:36;;;;;;;10.30;7.60;;;;;;;16.04;74.22;97490.94;117327;1176;68340;-74
2021/09/28 01:24:07;;;;;;;11.90;9.20;;;;;;;15.97;74.09;97490.16;117367;1177;59455;-73
2021/09/28 01:26:37;;;;;;;9.20;7.70;;;;;;;15.91;74.54;97489.17;117402;1174;59429;-73
2021/09/28 01:29:07;;;;;;;;;;;;;;;15.89;73.05;97489.66;117440;1176;70871;-73
2021/09/28 01:31:38;;;;;;;7.70;6.30;;;;;;;15.89;72.15;97488.25;117305;1177;69185;-73
2021/09/28 01:34:09;;;;;;;10.30;7.30;;;;;;;15.90;72.30;97488.55;117334;1176;69225;-76
2021/09/28 01:36:39;;;;;;;10.90;7.60;;;;;;;15.89;72.96;97484.92;117317;1176;59504;-73
2021/09/28 01:39:10;;;;;;;9.40;6.70;;;;;;;15.85;73.06;97489.08;117370;1174;59686;-74
2021/09/28 01:41:41;;;;;;;12.60;8.00;;;;;;;15.83;72.75;97484.34;117358;1176;71103;-73
2021/09/28 01:44:14;;;;;;;8.80;6.50;;;;;;;15.80;73.74;97483.14;117327;1177;69007;-73
2021/09/28 01:46:46;;;;;;;12.80;10.40;;;;;;;15.78;73.74;97480.52;117109;1177;69307;-74
2021/09/28 01:49:19;;;;;;;9.40;7.70;;;;;;;15.73;74.25;97479.59;117089;1176;59488;-73
2021/09/28 01:51:49;;;;;;;10.10;8.80;;;;;;;15.72;73.40;97477.36;117407;1176;59510;-73
2021/09/28 01:54:19;;;;;;;10.50;9.10;;;;;;;15.72;73.12;97475.46;117318;1177;70196;-73
2021/09/28 01:56:49;;;;;;;9.40;8.40;;;;;;;15.68;74.24;97473.32;117320;1177;70131;-73
2021/09/28 01:59:19;;;;;;;10.00;7.20;;;;;;;15.63;74.42;97472.08;117035;1177;69208;-73
2021/09/28 02:01:49;;;;;;;10.70;9.20;;;;;;;15.61;74.68;97471.08;117401;1177;59539;-73
2021/09/28 02:04:18;;;;;;;13.00;10.00;;;;;;;15.60;74.10;97467.92;117349;1176;59529;-73
2021/09/28 02:06:50;;;;;;;12.50;10.00;;;;;;;15.57;74.36;97467.69;117260;1177;70759;-74
2021/09/28 02:09:20;;;;;;;11.00;9.80;;;;;;;15.53;75.91;97468.05;117357;1176;68485;-73
2021/09/28 02:11:51;;;;;;;11.40;9.00;;;;;;;15.50;75.92;97467.84;117341;1177;69239;-73
2021/09/28 02:14:26;;;;;;;10.10;7.40;;;;;;;15.46;75.48;97464.14;117361;1176;59529;-73
2021/09/28 02:16:57;;;;;;;10.90;8.90;;;;;;;15.42;75.98;97468.34;117411;1177;59484;-74
2021/09/28 02:19:27;;;;;;;11.10;9.20;;;;;;;15.40;75.31;97468.41;117317;1176;71364;-74
2021/09/28 02:21:56;;;;;;;;;;;;;;;15.37;76.16;97471.09;117368;1176;68489;-74
2021/09/28 02:24:26;;;;;;;14.60;10.60;;;;;;;15.33;76.77;97467.65;117320;1176;69233;-73
2021/09/28 02:26:56;;;;;;;10.90;8.20;;;;;;;15.29;77.12;97465.46;117360;1177;59501;-74
2021/09/28 02:29:25;;;;;;;14.60;11.00;;;;;;;15.25;76.85;97459.67;117366;1176;59536;-72
2021/09/28 02:31:55;;;;;;;11.20;8.40;;;;;;;15.24;76.90;97462.61;117379;1177;70211;-73
2021/09/28 02:34:27;;;;;;;13.20;10.70;;;;;;;15.25;76.03;97464.14;117373;1177;69209;-73
2021/09/28 02:36:56;;;;;;;12.60;9.00;;;;;;;15.22;77.19;97462.23;117349;1176;68239;-73
2021/09/28 02:39:26;;;;;;;16.00;10.60;;;;;;;15.22;77.20;97464.09;116938;1177;59540;-77
2021/09/28 02:41:55;;;;;;;;;;;;;;;15.19;77.47;97468.21;117246;1176;59497;-74
2021/09/28 02:44:24;;;;;;;12.50;9.60;;;;;;;15.19;76.57;97469.54;117236;1177;71315;-75
2021/09/28 02:46:54;;;;;;;14.60;10.90;;;;;;;15.17;77.15;97466.55;117305;1177;69228;-75
2021/09/28 02:49:24;;;;;;;;;;;;;;;15.13;77.96;97468.36;117409;1177;69256;-73
2021/09/28 02:51:54;;;;;;;12.80;9.70;;;;;;;15.10;77.78;97467.24;117349;1174;59568;-73
2021/09/28 02:54:24;;;;;;;11.40;9.40;;;;;;;15.08;77.93;97470.27;117419;1176;59471;-73
2021/09/28 02:56:55;;;;;;;9.60;6.70;;;;;;;15.07;77.81;97468.09;117373;1177;70336;-73
2021/09/28 02:59:24;;;;;;;11.40;9.50;;;;;;;15.04;77.81;97467.91;117337;1177;69076;-73
2021/09/28 03:01:53;;;;;;;13.30;10.50;;;;;;;15.02;78.03;97469.15;117274;1176;69368;-73
2021/09/28 03:04:23;;;;;;;12.80;9.90;;;;;;;14.99;78.36;97468.58;117263;1176;59509;-73
2021/09/28 03:06:53;;;;;;;12.60;9.00;;;;;;;14.99;78.02;97469.23;117371;1177;59520;-74
2021/09/28 03:09:22;;;;;;;14.40;10.40;;;;;;;14.98;77.92;97465.86;117182;1177;71095;-74
2021/09/28 03:11:52;;;;;;;11.30;8.90;;;;;;;14.95;78.29;97466.43;117248;1177;68599;-73
2021/09/28 03:14:22;;;;;;;13.40;10.60;;;;;;;14.92;78.55;97468.65;117047;1177;69462;-73
2021/09/28 03:16:52;;;;;;;15.00;10.20;;;;;;;14.92;78.71;97466.59;117422;1177;59526;-73
2021/09/28 03:19:21;;;;;;;15.00;10.10;;;;;;;14.90;78.42;97470.13;117348;1177;59501;-73
2021/09/28 03:21:51;;;;;;;13.70;10.90;;;;;;;14.88;78.95;97469.61;117116;1176;71214;-72
2021/09/28 03:24:21;;;;;;;;;;;;;;;14.89;78.50;97476.55;117286;1176;68718;-72
2021/09/28 03:26:50;;;;;;;11.60;8.10;;;;;;;14.90;77.96;97471.31;117306;1176;68415;-72
2021/09/28 03:29:20;;;;;;;11.70;9.40;;;;;;;14.92;77.83;97474.85;117320;1177;59526;-73
2021/09/28 03:31:50;;;;;;;15.10;9.90;;;;;;;14.93;78.01;97475.44;117389;1175;59596;-73
2021/09/28 03:34:19;;;;;;;13.80;10.70;;;;;;;14.94;77.20;97475.50;117323;1176;71205;-76
2021/09/28 03:36:48;;;;;;;11.40;9.20;;;;;;;14.93;78.69;97479.45;117376;1177;69068;-74
2021/09/28 03:39:18;;;;;;;13.30;9.40;;;;;;;14.93;79.29;97479.86;117366;1176;68429;-73
2021/09/28 03:41:48;;;;;;;12.10;9.20;;;;;;;14.94;77.96;97479.08;117429;1176;58604;-73
2021/09/28 03:44:18;;;;;;;9.20;7.40;;;;;;;14.94;78.14;97479.88;117371;1176;59539;-73
2021/09/28 03:46:47;;;;;;;8.30;6.80;;;;;;;14.97;77.25;97479.67;117290;1177;71070;-73
2021/09/28 03:49:17;;;;;;;11.30;8.30;;;;;;;14.99;77.30;97483.70;117251;1176;68585;-73
2021/09/28 03:51:46;;;;;;;9.10;7.00;;;;;;;15.00;76.82;97480.98;117354;1176;68233;-73
2021/09/28 03:54:15;;;;;;;10.90;7.70;;;;;;;15.00;78.15;97483.09;117064;1177;59513;-73
2021/09/28 03:56:44;;;;;;;15.60;10.40;;;;;;;14.98;77.70;97483.38;117258;1177;58466;-74
2021/09/28 03:59:14;;;;;;;12.70;9.60;;;;;;;14.97;78.48;97486.30;117458;1176;71370;-74
2021/09/28 04:01:43;;;;;;;8.80;6.40;;;;;;;14.97;77.70;97482.63;117345;1177;70375;-73
2021/09/28 04:04:12;;;;;;;12.30;9.50;;;;;;;14.97;77.87;97486.10;117547;1175;68848;-74
2021/09/28 04:06:42;;;;;;;10.00;8.00;;;;;;;14.98;77.76;97484.81;117435;1177;59731;-73
2021/09/28 04:09:11;;;;;;;12.70;8.40;;;;;;;14.99;77.37;97484.51;117352;1176;59495;-74
2021/09/28 04:11:40;;;;;;;;;;;;;;;15.00;77.20;97488.14;117362;1176;70355;-74
2021/09/28 04:14:11;;;;;;;8.70;6.60;;;;;;;15.02;76.53;97487.41;117368;1177;68990;-73
2021/09/28 04:16:40;;;;;;;12.50;7.90;;;;;;;15.05;76.22;97487.34;117386;1174;69290;-73
2021/09/28 04:19:10;;;;;;;12.80;9.00;;;;;;;15.06;76.27;97488.83;117381;1177;60231;-75
2021/09/28 04:21:39;;;;;;;11.80;9.10;;;;;;;15.06;77.30;97490.93;117393;1177;59455;-73
2021/09/28 04:24:11;;;;;;;11.40;8.60;;;;;;;15.06;77.08;97488.66;117049;1177;71257;-73
2021/09/28 04:26:41;;;;;;;13.60;9.60;;;;;;;15.05;78.23;97489.27;117337;1177;67836;-73
2021/09/28 04:29:11;;;;;;;15.10;11.30;;;;;;;15.03;77.41;97489.48;117276;1176;69343;-72
2021/09/28 04:31:40;;;;;;;10.50;7.40;;;;;;;15.00;79.28;97488.83;116995;1177;59536;-75
2021/09/28 04:34:09;;;;;;;13.40;9.20;;;;;;;14.98;79.32;97489.20;117371;1176;60112;-73
2021/09/28 04:36:38;;;;;;;11.40;9.10;;;;;;;14.96;79.28;97492.54;117329;1177;72084;-74
2021/09/28 04:39:07;;;;;;;12.30;10.10;;;;;;;14.93;79.34;97494.88;117407;1177;69254;-74
2021/09/28 04:41:36;;;;;;;12.30;9.20;;;;;;;14.93;78.82;97499.34;117075;1176;69333;-73
2021/09/28 04:44:05;;;;;;;9.90;8.20;;;;;;;14.92;79.27;97500.64;117370;1176;59532;-73
2021/09/28 04:46:34;;;;;;;13.90;9.80;;;;;;;14.91;78.88;97497.34;117397;1177;59526;-73
2021/09/28 04:49:03;;;;;;;17.70;12.30;;;;;;;14.89;80.00;97506.83;117381;1176;71172;-73
2021/09/28 04:51:33;;;;;;;15.30;11.40;;;;;;;14.84;80.87;97507.62;117079;1177;69728;-74
2021/09/28 04:54:03;;;;;;;13.00;9.20;;;;;;;14.83;79.79;97508.80;117323;1176;69245;-75
2021/09/28 04:56:32;;;;;;;13.70;10.60;;;;;;;14.80;80.49;97510.80;117311;1177;59499;-75
2021/09/28 04:59:01;;;;;;;14.30;11.00;;;;;;;14.80;79.89;97512.23;117406;1176;59487;-73
2021/09/28 05:01:32;;;;;;;14.20;10.00;;;;;;;14.79;79.58;97513.53;117348;1177;71182;-73
2021/09/28 05:04:01;;;;;;;16.80;12.10;;;;;;;14.80;79.24;97510.14;117525;1177;69292;-74
2021/09/28 05:06:30;;;;;;;21.20;15.80;;;;;;;14.80;79.60;97505.54;117254;1177;69070;-74
2021/09/28 05:09:00;;;;;;;16.10;12.30;;;;;;;14.81;79.53;97509.52;117355;1177;59489;-74
2021/09/28 05:11:29;;;;;;;17.90;14.30;;;;;;;14.81;79.13;97512.47;117303;1177;60198;-72
2021/09/28 05:13:57;;;;;;;25.30;19.10;;;;;;;14.81;79.43;97514.42;117317;1176;69691;-76
2021/09/28 05:16:27;;;;;;;14.10;11.30;;;;;;;14.79;80.52;97513.70;117203;1176;68486;-74
2021/09/28 05:18:56;;;;;;;17.40;12.20;;;;;;;14.80;78.65;97513.98;117320;1176;69040;-75
2021/09/28 05:21:26;;;;;;;18.80;13.20;;;;;;;14.81;78.46;97516.17;117184;1177;59526;-74
2021/09/28 05:23:55;;;;;;;16.80;13.30;;;;;;;14.80;78.39;97516.95;117351;1177;59522;-75
2021/09/28 05:26:24;;;;;;;21.30;14.70;;;;;;;14.80;78.54;97519.48;117293;1172;71458;-74
2021/09/28 05:28:53;;;;;;;18.90;15.10;;;;;;;14.78;78.40;97522.34;117316;1177;68381;-74
2021/09/28 05:31:22;;;;;;;17.80;12.90;;;;;;;14.77;79.64;97519.95;117244;1176;69057;-73
2021/09/28 05:33:51;;;;;;;20.40;16.60;;;;;;;14.76;79.78;97522.53;117182;1176;59564;-74
2021/09/28 05:36:21;;;;;;;11.90;8.80;;;;;;;14.73;79.77;97520.00;117355;1175;59533;-74
2021/09/28 05:38:50;;;;;;;19.20;14.00;;;;;;;14.75;78.71;97522.84;117348;1176;71238;-73
2021/09/28 05:41:19;;;;;;;18.20;14.40;;;;;;;14.73;80.86;97517.76;117351;1176;69212;-73
2021/09/28 05:43:48;;;;;;;20.40;15.20;;;;;;;14.72;80.58;97521.66;117339;1177;68484;-73
2021/09/28 05:46:18;;;;;;;22.90;16.80;;;;;;;14.71;81.36;97526.87;117159;1166;59529;-74
2021/09/28 05:48:47;;;;;;;21.10;15.90;;;;;;;14.69;81.30;97527.35;117338;1177;59532;-74
2021/09/28 05:51:18;;;;;;;17.30;13.30;;;;;;;14.68;81.48;97526.02;117268;1177;71328;-76
2021/09/28 05:53:48;;;;;;;15.80;11.10;;;;;;;14.69;80.71;97531.05;117077;1177;67445;-77
2021/09/28 05:56:17;;;;;;;18.00;13.40;;;;;;;14.70;80.54;97534.98;117245;1177;68329;-74
2021/09/28 05:58:46;;;;;;;14.20;10.20;;;;;;;14.71;80.57;97535.42;117305;1176;59867;-74
2021/09/28 06:01:15;;;;;;;14.40;10.30;;;;;;;14.73;80.34;97539.98;117336;1177;59478;-74
2021/09/28 06:03:45;;;;;;;14.30;9.80;;;;;;;14.75;80.47;97542.64;117303;1176;70185;-75
2021/09/28 06:06:14;;;;;;;10.60;8.90;;;;;;;14.76;80.44;97543.92;117347;1176;68649;-75
2021/09/28 06:08:43;;;;;;;12.30;9.60;;;;;;;14.81;79.14;97541.66;117327;1177;69259;-74
2021/09/28 06:11:12;;;;;;;15.60;10.90;;;;;;;14.83;78.73;97540.57;117251;1176;59538;-73
2021/09/28 06:13:41;;;;;;;15.30;10.00;;;;;;;14.82;78.97;97543.27;117221;1177;59488;-76
2021/09/28 06:16:11;;;;;;;14.10;10.90;;;;;;;14.83;78.88;97546.14;117275;1176;70610;-75
2021/09/28 06:18:40;;;;;;;13.70;10.30;;;;;;;14.82;78.72;97544.73;117249;1176;68270;-74
2021/09/28 06:21:09;;;;;;;11.70;9.90;;;;;;;14.81;78.53;97549.49;117270;1176;68759;-74
2021/09/28 06:23:38;;;;;;;14.10;10.40;;;;;;;14.81;78.45;97550.39;116949;1176;59567;-74
2021/09/28 06:26:08;;;;;;;14.60;10.60;;;;;;;14.81;78.68;97551.13;117144;1177;59531;-74
2021/09/28 06:28:37;;;;;;;12.40;9.00;;;;;;;14.80;79.12;97557.11;117275;1177;70931;-76
2021/09/28 06:31:06;;;;;;;13.10;10.00;;;;;;;14.81;78.43;97555.29;117214;1176;68349;-74
2021/09/28 06:33:35;;;;;;;12.00;8.20;;;;;;;14.82;78.39;97556.45;117130;1173;69190;-74
2021/09/28 06:36:04;;;;;;;12.40;9.40;;;;;;;14.82;78.19;97558.55;117270;1177;59545;-77
2021/09/28 06:38:33;;;;;;;14.00;10.10;;;;;;;14.83;78.28;97561.11;117319;1176;59484;-74
2021/09/28 06:41:02;;;;;;;12.70;9.40;;;;;;;14.83;78.19;97561.41;117331;1176;71190;-74
2021/09/28 06:43:31;;;;;;;11.10;8.00;;;;;;;14.84;78.03;97562.04;117219;1176;68590;-74
2021/09/28 06:46:01;;;;;;;11.70;7.90;;;;;;;14.85;77.69;97563.20;116965;1177;69589;-75
2021/09/28 06:48:30;;;;;;;11.70;8.70;;;;;;;14.87;77.44;97569.15;117329;1177;60056;-75
2021/09/28 06:50:59;;;;;;;12.90;8.80;;;;;;;14.88;77.65;97565.69;117361;1176;59507;-74
2021/09/28 06:53:28;;;;;;;12.40;9.20;;;;;;;14.90;77.81;97572.04;117299;1177;71300;-75
2021/09/28 06:55:57;;;;;;;18.40;13.00;;;;;;;14.92;78.89;97576.27;117201;1176;69301;-75
2021/09/28 06:58:27;;;;;;;10.90;8.40;;;;;;;14.92;79.21;97579.19;117103;1176;69152;-75
2021/09/28 07:00:56;;;;;;;12.70;10.00;;;;;;;14.93;78.17;97581.61;117039;1177;59514;-75
2021/09/28 07:03:26;;;;;;;13.00;11.00;;;;;;;14.93;78.98;97586.30;117214;1177;59529;-74
2021/09/28 07:05:55;;;;;;;14.60;11.30;;;;;;;14.93;79.41;97590.00;117315;1177;70258;-74
2021/09/28 07:08:24;;;;;;;17.60;13.40;;;;;;;14.92;78.65;97591.82;117358;1171;69289;-74
2021/09/28 07:10:53;;;;;;;11.10;8.30;;;;;;;14.90;79.65;97593.85;117151;1177;68479;-74
2021/09/28 07:13:22;;;;;;;13.70;9.60;;;;;;;14.89;78.75;97597.77;117314;1174;59529;-74
2021/09/28 07:15:52;;;;;;;13.40;9.10;;;;;;;14.91;78.35;97601.27;117246;1176;59516;-74
2021/09/28 07:18:21;;;;;;;12.60;10.00;;;;;;;14.92;78.92;97601.18;117049;1177;70657;-74
2021/09/28 07:20:50;;;;;;;12.80;9.50;;;;;;;14.92;78.79;97603.79;117041;1177;69054;-74
2021/09/28 07:23:19;;;;;;;14.60;10.40;;;;;;;14.93;78.49;97601.58;117252;1177;68282;-72
2021/09/28 07:25:48;;;;;;;14.50;10.70;;;;;;;14.92;79.74;97605.00;117312;1176;59521;-74
2021/09/28 07:28:17;;;;;;;14.80;11.60;;;;;;;14.92;79.73;97601.91;117348;1177;59525;-73
2021/09/28 07:30:46;;;;;;;19.20;14.10;;;;;;;14.89;80.54;97606.52;117298;1176;71484;-75
2021/09/28 07:33:15;;;;;;;16.40;12.20;;;;;;;14.84;80.91;97607.66;117205;1176;69025;-74
2021/09/28 07:35:45;;;;;;;9.90;8.50;;;;;;;14.83;80.35;97610.91;117296;1177;68556;-75
2021/09/28 07:38:15;;;;;;;12.40;9.70;;;;;;;14.84;79.29;97614.73;117276;1177;59526;-74
2021/09/28 07:40:47;;;;;;;17.60;13.70;;;;;;;14.85;79.47;97611.48;117285;1177;59533;-73
2021/09/28 07:43:19;;;;;;;14.10;11.20;;;;;;;14.82;81.61;97619.45;117261;1177;71184;-72
2021/09/28 07:45:48;;;;;;;13.40;9.10;;;;;;;14.81;81.05;97621.77;117288;1176;68600;-76
2021/09/28 07:48:18;;;;;;;11.10;8.30;;;;;;;14.84;80.04;97623.86;117132;1174;69269;-74
2021/09/28 07:50:47;;;;;;;11.10;7.20;;;;;;;14.87;79.67;97623.91;117344;1177;59844;-73
2021/09/28 07:53:24;;;;;;;9.90;6.90;;;;;;;14.90;79.28;97621.89;117275;1177;59468;-73
2021/09/28 07:55:54;;;;;;;9.50;7.50;;;;;;;14.91;79.38;97619.98;117232;1176;71702;-73
2021/09/28 07:58:23;;;;;;;17.30;13.10;;;;;;;14.92;78.90;97620.60;117227;1176;69336;-73
2021/09/28 08:00:53;;;;;;;16.10;9.90;;;;;;;14.90;79.94;97622.23;117247;1176;69880;-73
2021/09/28 08:03:27;;;;;;;12.80;10.30;;;;;;;14.86;80.36;97622.95;117248;1177;59509;-73
2021/09/28 08:05:56;;;;;;;18.50;12.20;;;;;;;14.82;80.17;97624.52;117143;1177;59568;-73
2021/09/28 08:08:25;;;;;;;13.20;10.30;;;;;;;14.77;80.25;97623.33;117368;1175;70440;-73
2021/09/28 08:10:55;;;;;;;20.50;14.20;;;;;;;14.73;80.79;97619.80;117041;1177;69324;-72
2021/09/28 08:13:24;;;;;;;15.40;10.90;;;;;;;14.69;81.01;97622.11;117359;1177;69220;-73
2021/09/28 08:15:55;;;;;;;20.30;14.20;;;;;;;14.68;80.29;97626.59;117332;1177;59523;-74
2021/09/28 08:18:24;;;;;;;21.30;15.20;;;;;;;14.66;80.32;97627.23;117312;1176;59500;-72
2021/09/28 08:20:54;;;;;;;19.40;12.50;;;;;;;14.64;80.51;97629.89;117164;1177;70384;-71
2021/09/28 08:23:24;;;;;;;18.20;14.50;;;;;;;14.59;80.94;97629.96;117224;1177;68720;-73
2021/09/28 08:31:13;;;;;;;14.90;11.50;;;;;;;14.60;81.13;97626.05;116957;1176;59532;-70
2021/09/28 08:33:44;;;;;;;14.30;10.40;;;;;;;14.55;82.48;97624.88;116942;1177;71361;-73
2021/09/28 08:36:15;;;;;;;14.00;10.70;;;;;;;14.55;82.08;97622.78;116739;1180;68997;-73
2021/09/28 08:38:47;;;;;;;13.70;9.60;;;;;;;14.57;81.45;97617.58;116875;1177;69051;-70
2021/09/28 08:41:21;;;;;;;20.00;13.50;;;;;;;14.55;82.40;97612.27;116799;1177;59484;-69
2021/09/28 08:43:54;;;;;;;16.80;12.60;;;;;;;14.55;83.01;97610.69;116969;1177;59543;-72
2021/09/28 08:46:26;;;;;;;15.10;12.20;;;;;;;14.55;82.99;97610.14;116958;1177;70838;-73
2021/09/28 08:48:58;;;;;;;17.10;12.90;;;;;;;14.54;83.02;97613.63;117010;1177;68328;-71
2021/09/28 08:51:29;;;;;;;17.60;11.90;;;;;;;14.56;82.32;97617.95;116851;1177;68984;-72
2021/09/28 08:54:03;;;;;;;13.00;9.70;;;;;;;14.64;81.79;97620.09;116954;1177;59475;-73
2021/09/28 08:56:33;;;;;;;13.40;10.20;;;;;;;14.65;81.48;97620.19;116852;1177;59543;-74
2021/09/28 08:59:10;;;;;;;11.90;9.30;;;;;;;14.66;81.39;97622.88;116988;1177;70493;-72
2021/09/28 09:02:09;;;;;;;13.90;10.30;;;;;;;14.65;81.79;97621.39;116919;1177;68742;-73
2021/09/28 09:04:46;;;;;;;14.50;10.90;;;;;;;14.64;82.06;97620.23;116932;1177;68429;-72
2021/09/28 09:07:27;;;;;;;10.90;8.80;;;;;;;14.67;81.54;97621.07;116932;1177;59528;-74
2021/09/28 09:09:59;;;;;;;13.20;10.20;;;;;;;14.67;81.56;97623.33;117326;1176;59529;-74
2021/09/28 09:12:44;;;;;;;13.40;9.40;;;;;;;14.70;81.40;97627.24;116965;1176;71660;-74
2021/09/28 09:15:25;;;;;;;13.20;9.50;;;;;;;14.76;81.16;97623.91;117030;1176;68305;-72
2021/09/28 09:18:17;;;;;;;14.30;10.30;;;;;;;14.74;81.25;97623.39;116897;1177;69588;-74
2021/09/28 09:20:52;;;;;;;13.20;11.40;;;;;;;14.71;81.13;97622.28;116993;1177;59529;-73
2021/09/28 09:23:32;;;;;;;13.80;10.00;;;;;;;14.70;81.33;97620.06;116794;1177;59583;-74
2021/09/28 09:26:19;;;;;;;12.90;9.70;;;;;;;14.72;81.32;97619.60;116774;1177;71481;-73
2021/09/28 09:29:01;;;;;;;11.70;9.10;;;;;;;14.69;81.24;97621.05;116897;1177;68650;-74
2021/09/28 09:31:34;;;;;;;14.10;10.90;;;;;;;14.69;81.10;97619.65;116840;1177;68808;-72
2021/09/28 09:34:19;;;;;;;13.40;10.70;;;;;;;14.67;81.43;97622.11;116833;1176;59558;-74
2021/09/28 09:36:59;;;;;;;18.10;12.90;;;;;;;14.68;81.36;97625.34;116828;1177;59513;-73
2021/09/28 09:39:48;;;;;;;18.80;12.00;;;;;;;14.71;81.78;97628.27;116765;1177;71504;-74
2021/09/28 09:42:20;;;;;;;12.20;9.20;;;;;;;14.74;82.51;97629.59;116955;1177;68890;-72
2021/09/28 09:44:53;;;;;;;13.20;10.30;;;;;;;14.80;81.42;97631.19;116737;1178;68429;-75
2021/09/28 09:47:35;;;;;;;11.10;9.00;;;;;;;14.77;81.85;97632.42;116878;1177;59545;-73
2021/09/28 09:50:12;;;;;;;15.10;11.80;;;;;;;14.79;82.06;97634.56;116843;1177;59586;-73
2021/09/28 09:53:05;;;;;;;11.50;8.40;;;;;;;14.85;81.79;97634.58;116955;1177;71130;-73
2021/09/28 09:55:39;;;;;;;11.60;8.10;;;;;;;14.88;82.00;97631.55;117206;1176;69416;-72
2021/09/28 09:58:10;;;;;;;12.80;9.90;;;;;;;14.94;81.61;97632.17;116870;1176;68984;-73
2021/09/28 10:00:41;;;;;;;11.20;9.10;;;;;;;14.99;82.07;97634.47;116704;1178;59561;-73
2021/09/28 10:03:10;;;;;;;14.70;11.70;;;;;;;15.06;81.15;97636.42;117098;1177;59507;-73
2021/09/28 10:05:40;;;;;;;11.40;9.30;;;;;;;15.14;80.97;97636.59;117345;1176;70488;-72
2021/09/28 10:08:13;;;;;;;14.00;10.70;;;;;;;15.20;80.37;97636.08;117292;1177;69827;-72
2021/09/28 10:10:44;;;;;;;11.40;8.10;;;;;;;15.20;80.56;97639.55;117371;1177;69379;-72
2021/09/28 10:14:04;;;;;;;13.50;9.40;;;;;;;15.24;80.28;97638.88;117247;1177;59571;-72
2021/09/28 10:16:37;;;;;;;;;;;;;;;15.27;79.78;97637.95;116484;1180;59636;-74
2021/09/28 10:19:29;;;;;;;13.20;9.40;;;;;;;15.24;79.60;97640.13;116529;1180;71453;-72
2021/09/28 10:21:59;;;;;;;12.80;8.60;;;;;;;15.20;79.88;97640.30;116400;1180;68460;-74
2021/09/28 10:24:34;;;;;;;12.90;9.80;;;;;;;15.20;80.24;97640.98;116503;1180;68528;-73
2021/09/28 10:27:03;;;;;;;15.00;11.70;;;;;;;15.21;80.34;97638.62;116528;1180;59673;-75
2021/09/28 10:29:38;;;;;;;13.80;10.30;;;;;;;15.22;80.48;97639.22;116555;1180;59545;-72
2021/09/28 10:32:22;;;;;;;12.70;10.00;;;;;;;15.28;80.31;97634.69;116529;1180;71468;-74
2021/09/28 10:35:09;;;;;;;12.80;9.00;;;;;;;15.30;80.57;97631.02;116490;1180;69312;-76
2021/09/28 10:37:41;;;;;;;15.80;11.90;;;;;;;15.30;80.95;97638.52;116531;1180;67568;-72
2021/09/28 10:40:13;;;;;;;12.50;9.80;;;;;;;15.39;81.41;97641.99;116485;1180;59529;-73
2021/09/28 10:42:51;;;;;;;15.50;11.20;;;;;;;15.50;80.69;97647.34;116546;1180;59587;-74
2021/09/28 10:45:31;;;;;;;14.40;9.90;;;;;;;15.54;80.23;97647.48;116557;1180;70957;-72
2021/09/28 10:48:07;;;;;;;10.90;9.50;;;;;;;15.57;79.65;97651.59;116520;1180;69290;-73
2021/09/28 10:50:39;;;;;;;13.30;9.40;;;;;;;15.58;79.34;97650.97;116565;1180;68422;-71
2021/09/28 10:53:29;;;;;;;15.50;11.90;;;;;;;15.55;79.11;97651.61;116874;1177;59591;-72
2021/09/28 10:56:01;;;;;;;10.60;8.50;;;;;;;15.55;79.09;97649.88;117299;1177;59511;-73
2021/09/28 10:58:48;;;;;;;12.80;8.80;;;;;;;15.57;78.99;97650.70;117044;1177;72089;-73
2021/09/28 11:01:20;;;;;;;12.90;9.60;;;;;;;15.60;79.10;97649.73;117090;1177;68468;-74
2021/09/28 11:03:58;;;;;;;13.90;10.90;;;;;;;15.63;79.39;97654.27;116944;1177;68536;-74
2021/09/28 11:06:49;;;;;;;14.90;10.10;;;;;;;15.67;79.45;97655.68;116914;1177;59485;-71
2021/09/28 11:09:26;;;;;;;17.20;11.90;;;;;;;15.76;79.18;97654.34;116941;1177;59539;-73
2021/09/28 11:11:58;;;;;;;14.10;11.10;;;;;;;15.82;79.05;97656.45;116964;1177;71443;-72
2021/09/28 11:14:42;;;;;;;13.40;9.40;;;;;;;15.86;78.63;97652.00;116924;1177;69078;-75
2021/09/28 11:17:18;;;;;;;8.30;6.70;;;;;;;15.90;77.95;97652.88;116790;1177;69627;-73
2021/09/28 11:19:49;;;;;;;12.50;9.90;;;;;;;15.91;77.99;97648.76;116942;1177;59565;-72
2021/09/28 11:22:22;;;;;;;13.10;9.10;;;;;;;15.90;78.07;97650.91;116954;1177;59514;-72
2021/09/28 11:24:54;;;;;;;12.40;7.90;;;;;;;15.95;77.57;97649.29;117020;1177;71277;-73
2021/09/28 11:27:24;;;;;;;10.40;7.90;;;;;;;15.93;77.17;97649.13;117108;1177;68369;-72
2021/09/28 11:29:55;;;;;;;12.80;10.10;;;;;;;15.90;77.45;97649.89;116957;1177;69272;-72
2021/09/28 11:32:26;;;;;;;11.80;9.40;;;;;;;15.92;77.32;97654.44;116778;1177;59491;-73
2021/09/28 11:34:58;;;;;;;9.60;8.00;;;;;;;15.92;77.42;97651.48;116927;1177;59542;-73
2021/09/28 11:37:34;;;;;;;11.30;9.70;;;;;;;15.95;77.02;97655.00;116953;1177;71209;-74
2021/09/28 11:40:10;;;;;;;10.70;7.10;;;;;;;15.94;76.84;97655.86;117025;1177;68670;-74
2021/09/28 11:42:41;;;;;;;12.20;9.50;;;;;;;15.96;76.86;97652.30;116795;1177;67766;-75